sensor_id;sensor_type;location;lat;lon;timestamp;pressure;altitude;pressure_sealevel;temperature;humidity
71907;BME280;59781;52.090;5.030;2022-08-21T00:01:28;101690.22;;;16.11;80.56
71907;BME280;59781;52.090;5.030;2022-08-21T00:03:55;101688.06;;;16.35;79.36
71907;BME280;59781;52.090;5.030;2022-08-21T00:06:22;101691.44;;;16.38;79.23
71907;BME280;59781;52.090;5.030;2022-08-21T00:08:50;101685.53;;;16.34;80.02
71907;BME280;59781;52.090;5.030;2022-08-21T00:11:17;101689.28;;;16.18;80.71
71907;BME280;59781;52.090;5.030;2022-08-21T00:13:43;101681.78;;;16.05;82.27
71907;BME280;59781;52.090;5.030;2022-08-21T00:16:09;101683.19;;;15.87;83.35
71907;BME280;59781;52.090;5.030;2022-08-21T00:18:42;101689.34;;;15.81;83.70
71907;BME280;59781;52.090;5.030;2022-08-21T00:21:10;101677.72;;;15.49;85.04
71907;BME280;59781;52.090;5.030;2022-08-21T00:23:39;101686.22;;;15.69;84.37
71907;BME280;59781;52.090;5.030;2022-08-21T00:26:06;101671.88;;;15.60;84.84
71907;BME280;59781;52.090;5.030;2022-08-21T00:28:35;101675.69;;;15.74;84.18
71907;BME280;59781;52.090;5.030;2022-08-21T00:31:02;101667.59;;;15.81;83.92
71907;BME280;59781;52.090;5.030;2022-08-21T00:33:37;101675.25;;;16.15;81.86
71907;BME280;59781;52.090;5.030;2022-08-21T00:39:13;101677.81;;;15.78;83.93
71907;BME280;59781;52.090;5.030;2022-08-21T00:41:41;101660.59;;;15.86;83.54
71907;BME280;59781;52.090;5.030;2022-08-21T00:44:10;101664.25;;;15.78;83.85
71907;BME280;59781;52.090;5.030;2022-08-21T00:46:41;101667.63;;;15.58;85.58
71907;BME280;59781;52.090;5.030;2022-08-21T00:49:11;101660.78;;;15.85;83.47
71907;BME280;59781;52.090;5.030;2022-08-21T00:51:44;101657.69;;;15.88;83.02
71907;BME280;59781;52.090;5.030;2022-08-21T00:54:15;101663.28;;;15.71;84.06
71907;BME280;59781;52.090;5.030;2022-08-21T00:56:43;101663.97;;;15.88;82.84
71907;BME280;59781;52.090;5.030;2022-08-21T00:59:09;101664.97;;;15.72;83.95
71907;BME280;59781;52.090;5.030;2022-08-21T01:01:36;101656.00;;;15.87;83.27
71907;BME280;59781;52.090;5.030;2022-08-21T01:04:02;101658.69;;;15.72;84.45
71907;BME280;59781;52.090;5.030;2022-08-21T01:06:28;101660.34;;;15.96;82.13
71907;BME280;59781;52.090;5.030;2022-08-21T01:08:54;101661.25;;;15.73;83.62
71907;BME280;59781;52.090;5.030;2022-08-21T01:11:21;101660.25;;;16.04;82.07
71907;BME280;59781;52.090;5.030;2022-08-21T01:13:47;101659.13;;;16.13;81.39
71907;BME280;59781;52.090;5.030;2022-08-21T01:16:17;101666.84;;;15.72;83.90
71907;BME280;59781;52.090;5.030;2022-08-21T01:18:45;101662.59;;;15.55;85.56
71907;BME280;59781;52.090;5.030;2022-08-21T01:21:19;101670.28;;;16.03;82.02
71907;BME280;59781;52.090;5.030;2022-08-21T01:23:50;101662.09;;;15.89;83.10
71907;BME280;59781;52.090;5.030;2022-08-21T01:26:21;101665.91;;;15.80;83.49
71907;BME280;59781;52.090;5.030;2022-08-21T01:29:34;101664.25;;;15.78;83.10
71907;BME280;59781;52.090;5.030;2022-08-21T01:32:16;101662.38;;;15.79;83.33
71907;BME280;59781;52.090;5.030;2022-08-21T01:34:45;101661.34;;;15.80;82.88
71907;BME280;59781;52.090;5.030;2022-08-21T01:37:15;101659.63;;;15.64;83.95
71907;BME280;59781;52.090;5.030;2022-08-21T01:39:42;101667.22;;;15.69;84.09
71907;BME280;59781;52.090;5.030;2022-08-21T01:42:14;101659.56;;;15.87;82.58
71907;BME280;59781;52.090;5.030;2022-08-21T01:44:52;101653.00;;;15.82;83.35
71907;BME280;59781;52.090;5.030;2022-08-21T01:47:18;101659.94;;;15.84;82.60
71907;BME280;59781;52.090;5.030;2022-08-21T01:49:44;101654.03;;;15.66;84.26
71907;BME280;59781;52.090;5.030;2022-08-21T01:52:11;101651.13;;;15.67;84.14
71907;BME280;59781;52.090;5.030;2022-08-21T01:54:38;101650.09;;;15.68;83.92
71907;BME280;59781;52.090;5.030;2022-08-21T01:57:04;101647.41;;;15.83;83.32
71907;BME280;59781;52.090;5.030;2022-08-21T01:59:31;101644.75;;;15.75;83.44
71907;BME280;59781;52.090;5.030;2022-08-21T02:01:58;101644.84;;;15.82;83.18
71907;BME280;59781;52.090;5.030;2022-08-21T02:04:26;101645.03;;;15.80;83.61
71907;BME280;59781;52.090;5.030;2022-08-21T02:06:52;101638.19;;;15.69;84.07
71907;BME280;59781;52.090;5.030;2022-08-21T02:09:19;101643.34;;;15.64;85.06
71907;BME280;59781;52.090;5.030;2022-08-21T02:11:47;101640.19;;;15.75;84.38
71907;BME280;59781;52.090;5.030;2022-08-21T02:14:14;101640.81;;;15.77;84.22
71907;BME280;59781;52.090;5.030;2022-08-21T02:16:42;101642.31;;;15.65;85.08
71907;BME280;59781;52.090;5.030;2022-08-21T02:19:15;101640.38;;;15.74;84.26
71907;BME280;59781;52.090;5.030;2022-08-21T02:21:42;101644.56;;;15.76;84.56
71907;BME280;59781;52.090;5.030;2022-08-21T02:24:08;101632.53;;;15.56;85.92
71907;BME280;59781;52.090;5.030;2022-08-21T02:27:26;101634.81;;;15.82;84.20
71907;BME280;59781;52.090;5.030;2022-08-21T02:29:56;101632.03;;;16.05;82.92
71907;BME280;59781;52.090;5.030;2022-08-21T02:32:26;101637.56;;;15.97;83.52
71907;BME280;59781;52.090;5.030;2022-08-21T02:34:52;101629.50;;;15.74;84.55
71907;BME280;59781;52.090;5.030;2022-08-21T02:37:19;101627.34;;;15.84;83.89
71907;BME280;59781;52.090;5.030;2022-08-21T02:39:50;101623.31;;;15.65;84.93
71907;BME280;59781;52.090;5.030;2022-08-21T02:42:16;101620.59;;;15.65;85.42
71907;BME280;59781;52.090;5.030;2022-08-21T02:44:42;101630.81;;;15.78;84.21
71907;BME280;59781;52.090;5.030;2022-08-21T02:47:10;101627.44;;;15.38;86.25
71907;BME280;59781;52.090;5.030;2022-08-21T02:49:41;101624.78;;;15.30;87.07
71907;BME280;59781;52.090;5.030;2022-08-21T02:52:07;101620.53;;;15.50;86.45
71907;BME280;59781;52.090;5.030;2022-08-21T02:54:57;101620.94;;;15.62;85.39
71907;BME280;59781;52.090;5.030;2022-08-21T02:57:26;101618.84;;;15.49;85.54
71907;BME280;59781;52.090;5.030;2022-08-21T02:59:52;101622.94;;;15.68;84.77
71907;BME280;59781;52.090;5.030;2022-08-21T03:02:18;101612.25;;;15.29;87.67
71907;BME280;59781;52.090;5.030;2022-08-21T03:04:44;101604.09;;;15.29;87.74
71907;BME280;59781;52.090;5.030;2022-08-21T03:07:32;101613.41;;;15.12;88.20
71907;BME280;59781;52.090;5.030;2022-08-21T03:11:20;101613.41;;;15.35;87.28
71907;BME280;59781;52.090;5.030;2022-08-21T03:14:26;101607.44;;;15.16;89.16
71907;BME280;59781;52.090;5.030;2022-08-21T03:17:28;101598.72;;;15.06;89.63
71907;BME280;59781;52.090;5.030;2022-08-21T03:19:53;101594.00;;;15.00;89.64
71907;BME280;59781;52.090;5.030;2022-08-21T03:22:19;101595.75;;;14.93;90.10
71907;BME280;59781;52.090;5.030;2022-08-21T03:24:45;101593.63;;;14.80;91.04
71907;BME280;59781;52.090;5.030;2022-08-21T03:27:11;101592.72;;;15.11;89.32
71907;BME280;59781;52.090;5.030;2022-08-21T03:29:39;101595.56;;;15.17;89.35
71907;BME280;59781;52.090;5.030;2022-08-21T03:32:05;101589.28;;;15.17;89.31
71907;BME280;59781;52.090;5.030;2022-08-21T03:34:39;101592.53;;;15.12;89.20
71907;BME280;59781;52.090;5.030;2022-08-21T03:37:09;101591.16;;;15.16;88.98
71907;BME280;59781;52.090;5.030;2022-08-21T03:39:43;101588.78;;;15.13;88.90
71907;BME280;59781;52.090;5.030;2022-08-21T03:42:29;101589.81;;;15.12;89.44
71907;BME280;59781;52.090;5.030;2022-08-21T03:44:57;101586.56;;;15.17;89.19
71907;BME280;59781;52.090;5.030;2022-08-21T03:47:53;101590.84;;;15.34;88.04
71907;BME280;59781;52.090;5.030;2022-08-21T03:50:22;101582.97;;;15.39;87.95
71907;BME280;59781;52.090;5.030;2022-08-21T03:52:49;101575.22;;;15.13;89.13
71907;BME280;59781;52.090;5.030;2022-08-21T03:55:15;101576.44;;;15.11;89.36
71907;BME280;59781;52.090;5.030;2022-08-21T03:57:41;101578.72;;;15.22;89.18
71907;BME280;59781;52.090;5.030;2022-08-21T04:00:08;101580.25;;;15.02;90.07
71907;BME280;59781;52.090;5.030;2022-08-21T04:02:37;101582.75;;;14.88;91.90
71907;BME280;59781;52.090;5.030;2022-08-21T04:05:26;101573.97;;;15.01;91.51
71907;BME280;59781;52.090;5.030;2022-08-21T04:08:04;101578.97;;;15.12;90.58
71907;BME280;59781;52.090;5.030;2022-08-21T04:10:41;101578.50;;;15.09;90.69
71907;BME280;59781;52.090;5.030;2022-08-21T04:13:16;101585.81;;;15.08;90.30
71907;BME280;59781;52.090;5.030;2022-08-21T04:15:53;101587.66;;;15.08;90.67
71907;BME280;59781;52.090;5.030;2022-08-21T04:18:19;101591.88;;;15.10;90.24
71907;BME280;59781;52.090;5.030;2022-08-21T04:20:51;101590.19;;;14.63;93.64
71907;BME280;59781;52.090;5.030;2022-08-21T04:23:20;101600.19;;;14.63;94.32
71907;BME280;59781;52.090;5.030;2022-08-21T04:25:48;101599.13;;;14.72;93.33
71907;BME280;59781;52.090;5.030;2022-08-21T04:28:14;101597.44;;;14.71;93.05
71907;BME280;59781;52.090;5.030;2022-08-21T04:30:44;101599.78;;;14.74;93.18
71907;BME280;59781;52.090;5.030;2022-08-21T04:33:10;101597.97;;;14.89;92.01
71907;BME280;59781;52.090;5.030;2022-08-21T04:35:35;101595.47;;;14.88;92.38
71907;BME280;59781;52.090;5.030;2022-08-21T04:38:01;101604.44;;;14.66;92.50
71907;BME280;59781;52.090;5.030;2022-08-21T04:40:28;101604.28;;;14.59;93.83
71907;BME280;59781;52.090;5.030;2022-08-21T04:42:57;101604.13;;;14.60;93.41
71907;BME280;59781;52.090;5.030;2022-08-21T04:45:31;101605.63;;;14.63;94.18
71907;BME280;59781;52.090;5.030;2022-08-21T04:48:05;101608.91;;;14.50;94.72
71907;BME280;59781;52.090;5.030;2022-08-21T04:50:47;101607.66;;;14.61;94.73
71907;BME280;59781;52.090;5.030;2022-08-21T04:56:19;101605.16;;;14.82;93.18
71907;BME280;59781;52.090;5.030;2022-08-21T04:58:49;101614.34;;;14.73;93.77
71907;BME280;59781;52.090;5.030;2022-08-21T05:01:21;101610.19;;;14.62;94.94
71907;BME280;59781;52.090;5.030;2022-08-21T05:03:54;101607.63;;;14.69;94.74
71907;BME280;59781;52.090;5.030;2022-08-21T05:06:23;101611.88;;;14.95;92.74
71907;BME280;59781;52.090;5.030;2022-08-21T05:08:52;101616.50;;;14.86;94.16
71907;BME280;59781;52.090;5.030;2022-08-21T05:11:21;101608.03;;;15.04;92.57
71907;BME280;59781;52.090;5.030;2022-08-21T05:13:49;101611.28;;;15.22;91.55
71907;BME280;59781;52.090;5.030;2022-08-21T05:16:16;101613.97;;;15.07;92.61
71907;BME280;59781;52.090;5.030;2022-08-21T05:18:43;101617.69;;;15.06;93.18
71907;BME280;59781;52.090;5.030;2022-08-21T05:21:08;101626.00;;;15.28;90.89
71907;BME280;59781;52.090;5.030;2022-08-21T05:23:43;101622.00;;;15.38;90.86
71907;BME280;59781;52.090;5.030;2022-08-21T05:26:09;101630.41;;;15.43;89.84
71907;BME280;59781;52.090;5.030;2022-08-21T05:28:37;101618.31;;;15.54;89.74
71907;BME280;59781;52.090;5.030;2022-08-21T05:31:03;101622.91;;;15.31;91.36
71907;BME280;59781;52.090;5.030;2022-08-21T05:33:28;101624.50;;;15.63;89.69
71907;BME280;59781;52.090;5.030;2022-08-21T05:35:54;101615.16;;;15.42;91.23
71907;BME280;59781;52.090;5.030;2022-08-21T05:38:26;101630.41;;;15.43;90.49
71907;BME280;59781;52.090;5.030;2022-08-21T05:40:56;101629.09;;;15.62;90.16
71907;BME280;59781;52.090;5.030;2022-08-21T05:43:23;101619.03;;;15.48;90.66
71907;BME280;59781;52.090;5.030;2022-08-21T05:45:49;101631.19;;;15.90;88.32
71907;BME280;59781;52.090;5.030;2022-08-21T05:48:21;101630.16;;;15.91;88.47
71907;BME280;59781;52.090;5.030;2022-08-21T05:50:50;101632.97;;;15.97;89.07
71907;BME280;59781;52.090;5.030;2022-08-21T05:53:20;101624.00;;;16.62;86.76
71907;BME280;59781;52.090;5.030;2022-08-21T05:55:48;101627.47;;;17.35;82.21
71907;BME280;59781;52.090;5.030;2022-08-21T05:58:17;101623.34;;;17.46;81.29
71907;BME280;59781;52.090;5.030;2022-08-21T06:00:45;101620.75;;;17.87;79.69
71907;BME280;59781;52.090;5.030;2022-08-21T06:03:15;101613.97;;;18.11;77.38
71907;BME280;59781;52.090;5.030;2022-08-21T06:05:44;101608.41;;;18.32;77.47
71907;BME280;59781;52.090;5.030;2022-08-21T06:08:11;101609.91;;;19.09;74.21
71907;BME280;59781;52.090;5.030;2022-08-21T06:10:37;101612.63;;;19.03;73.47
71907;BME280;59781;52.090;5.030;2022-08-21T06:13:03;101613.47;;;19.16;73.11
71907;BME280;59781;52.090;5.030;2022-08-21T06:15:30;101616.44;;;18.47;76.73
71907;BME280;59781;52.090;5.030;2022-08-21T06:25:22;101616.38;;;18.34;79.70
71907;BME280;59781;52.090;5.030;2022-08-21T06:31:42;101605.97;;;18.57;79.19
71907;BME280;59781;52.090;5.030;2022-08-21T06:43:14;101616.41;;;18.41;79.89
71907;BME280;59781;52.090;5.030;2022-08-21T06:45:42;101612.16;;;18.86;78.57
71907;BME280;59781;52.090;5.030;2022-08-21T06:59:51;101598.69;;;20.03;73.74
71907;BME280;59781;52.090;5.030;2022-08-21T07:41:36;101613.84;;;21.52;69.63
71907;BME280;59781;52.090;5.030;2022-08-21T07:44:36;101625.25;;;21.92;69.59
71907;BME280;59781;52.090;5.030;2022-08-21T07:47:38;101626.06;;;23.26;64.23
71907;BME280;59781;52.090;5.030;2022-08-21T07:50:06;101622.50;;;23.37;63.37
71907;BME280;59781;52.090;5.030;2022-08-21T07:52:33;101613.06;;;24.03;61.50
71907;BME280;59781;52.090;5.030;2022-08-21T07:55:21;101610.88;;;24.41;60.03
71907;BME280;59781;52.090;5.030;2022-08-21T07:59:12;101608.84;;;24.36;61.72
71907;BME280;59781;52.090;5.030;2022-08-21T08:01:37;101605.78;;;22.67;65.36
71907;BME280;59781;52.090;5.030;2022-08-21T08:04:18;101614.56;;;22.09;67.22
71907;BME280;59781;52.090;5.030;2022-08-21T08:07:42;101611.97;;;21.28;70.64
71907;BME280;59781;52.090;5.030;2022-08-21T08:10:11;101616.13;;;22.53;66.90
71907;BME280;59781;52.090;5.030;2022-08-21T08:13:14;101611.88;;;23.53;63.46
71907;BME280;59781;52.090;5.030;2022-08-21T08:15:39;101612.47;;;22.71;65.36
71907;BME280;59781;52.090;5.030;2022-08-21T08:18:52;101619.88;;;22.04;68.32
71907;BME280;59781;52.090;5.030;2022-08-21T08:21:21;101624.03;;;21.88;69.07
71907;BME280;59781;52.090;5.030;2022-08-21T08:23:47;101623.63;;;21.66;70.56
71907;BME280;59781;52.090;5.030;2022-08-21T08:26:13;101613.00;;;22.31;67.96
71907;BME280;59781;52.090;5.030;2022-08-21T08:28:41;101623.19;;;21.88;68.73
71907;BME280;59781;52.090;5.030;2022-08-21T08:31:09;101606.03;;;22.96;63.81
71907;BME280;59781;52.090;5.030;2022-08-21T08:33:35;101606.63;;;22.86;65.03
71907;BME280;59781;52.090;5.030;2022-08-21T08:36:01;101604.59;;;22.63;66.01
71907;BME280;59781;52.090;5.030;2022-08-21T08:38:29;101611.31;;;22.79;65.70
71907;BME280;59781;52.090;5.030;2022-08-21T08:41:13;101600.78;;;22.64;65.38
71907;BME280;59781;52.090;5.030;2022-08-21T08:44:10;101604.56;;;23.46;64.43
71907;BME280;59781;52.090;5.030;2022-08-21T08:46:44;101600.34;;;24.66;58.46
71907;BME280;59781;52.090;5.030;2022-08-21T08:49:34;101595.84;;;25.05;57.69
71907;BME280;59781;52.090;5.030;2022-08-21T08:52:20;101595.97;;;24.53;60.02
71907;BME280;59781;52.090;5.030;2022-08-21T08:55:16;101596.66;;;23.27;63.59
71907;BME280;59781;52.090;5.030;2022-08-21T08:57:48;101590.22;;;24.55;60.12
71907;BME280;59781;52.090;5.030;2022-08-21T09:00:19;101589.25;;;25.23;56.34
71907;BME280;59781;52.090;5.030;2022-08-21T09:02:47;101582.06;;;24.77;57.75
71907;BME280;59781;52.090;5.030;2022-08-21T09:05:25;101583.16;;;24.59;58.08
71907;BME280;59781;52.090;5.030;2022-08-21T09:14:05;101573.44;;;24.56;57.77
71907;BME280;59781;52.090;5.030;2022-08-21T09:26:11;101585.28;;;24.85;56.67
71907;BME280;59781;52.090;5.030;2022-08-21T09:28:59;101581.72;;;24.04;58.85
71907;BME280;59781;52.090;5.030;2022-08-21T09:31:32;101584.38;;;23.99;58.96
71907;BME280;59781;52.090;5.030;2022-08-21T09:34:28;101590.75;;;24.40;59.70
71907;BME280;59781;52.090;5.030;2022-08-21T09:36:58;101587.59;;;24.77;57.65
71907;BME280;59781;52.090;5.030;2022-08-21T09:39:32;101590.59;;;23.95;58.22
71907;BME280;59781;52.090;5.030;2022-08-21T09:42:07;101592.63;;;23.53;59.86
71907;BME280;59781;52.090;5.030;2022-08-21T09:44:44;101584.97;;;23.31;59.68
71907;BME280;59781;52.090;5.030;2022-08-21T09:47:14;101575.53;;;23.86;57.74
71907;BME280;59781;52.090;5.030;2022-08-21T09:50:21;101575.81;;;25.27;54.60
71907;BME280;59781;52.090;5.030;2022-08-21T09:52:58;101572.13;;;25.71;53.89
71907;BME280;59781;52.090;5.030;2022-08-21T09:55:56;101574.53;;;25.51;53.69
71907;BME280;59781;52.090;5.030;2022-08-21T09:58:47;101583.56;;;26.95;49.30
71907;BME280;59781;52.090;5.030;2022-08-21T10:01:21;101578.38;;;26.49;50.17
71907;BME280;59781;52.090;5.030;2022-08-21T10:04:02;101587.56;;;25.05;53.56
71907;BME280;59781;52.090;5.030;2022-08-21T10:06:38;101581.66;;;25.30;52.72
71907;BME280;59781;52.090;5.030;2022-08-21T10:09:18;101574.19;;;27.28;47.44
71907;BME280;59781;52.090;5.030;2022-08-21T10:12:12;101569.94;;;27.94;45.92
71907;BME280;59781;52.090;5.030;2022-08-21T10:17:50;101573.13;;;26.48;48.33
71907;BME280;59781;52.090;5.030;2022-08-21T10:20:54;101569.06;;;26.12;48.70
71907;BME280;59781;52.090;5.030;2022-08-21T10:36:40;101554.59;;;28.39;42.97
71907;BME280;59781;52.090;5.030;2022-08-21T10:43:14;101554.53;;;26.97;45.25
71907;BME280;59781;52.090;5.030;2022-08-21T10:46:25;101571.16;;;26.05;48.01
71907;BME280;59781;52.090;5.030;2022-08-21T11:00:49;101565.53;;;25.94;50.80
71907;BME280;59781;52.090;5.030;2022-08-21T11:04:52;101563.19;;;25.14;52.83
71907;BME280;59781;52.090;5.030;2022-08-21T11:07:46;101565.78;;;24.58;53.42
71907;BME280;59781;52.090;5.030;2022-08-21T11:10:59;101571.19;;;24.53;55.65
71907;BME280;59781;52.090;5.030;2022-08-21T11:13:59;101565.31;;;25.62;53.21
71907;BME280;59781;52.090;5.030;2022-08-21T11:18:21;101562.38;;;26.29;49.23
71907;BME280;59781;52.090;5.030;2022-08-21T11:28:36;101563.03;;;26.91;48.80
71907;BME280;59781;52.090;5.030;2022-08-21T11:34:48;101559.94;;;27.46;44.86
71907;BME280;59781;52.090;5.030;2022-08-21T11:44:29;101579.28;;;27.83;45.47
71907;BME280;59781;52.090;5.030;2022-08-21T11:52:11;101572.81;;;26.71;46.22
71907;BME280;59781;52.090;5.030;2022-08-21T12:00:31;101571.88;;;27.14;44.20
71907;BME280;59781;52.090;5.030;2022-08-21T12:04:26;101564.16;;;28.11;42.66
71907;BME280;59781;52.090;5.030;2022-08-21T12:14:44;101565.38;;;27.04;46.99
71907;BME280;59781;52.090;5.030;2022-08-21T12:17:39;101576.91;;;26.96;47.57
71907;BME280;59781;52.090;5.030;2022-08-21T12:21:05;101585.88;;;26.10;48.41
71907;BME280;59781;52.090;5.030;2022-08-21T12:30:39;101574.19;;;25.81;50.33
71907;BME280;59781;52.090;5.030;2022-08-21T12:34:46;101579.38;;;27.61;44.41
71907;BME280;59781;52.090;5.030;2022-08-21T12:37:48;101575.53;;;27.25;45.77
71907;BME280;59781;52.090;5.030;2022-08-21T12:40:30;101578.69;;;27.76;44.32
71907;BME280;59781;52.090;5.030;2022-08-21T12:43:07;101583.97;;;28.35;44.50
71907;BME280;59781;52.090;5.030;2022-08-21T12:45:50;101577.75;;;28.13;42.15
71907;BME280;59781;52.090;5.030;2022-08-21T12:51:24;101581.25;;;26.59;47.86
71907;BME280;59781;52.090;5.030;2022-08-21T12:54:47;101588.47;;;27.14;46.07
71907;BME280;59781;52.090;5.030;2022-08-21T12:57:46;101586.97;;;28.28;41.39
71907;BME280;59781;52.090;5.030;2022-08-21T13:00:13;101583.22;;;27.97;43.74
71907;BME280;59781;52.090;5.030;2022-08-21T13:03:26;101594.44;;;27.38;44.55
71907;BME280;59781;52.090;5.030;2022-08-21T13:08:24;101595.09;;;26.16;47.22
71907;BME280;59781;52.090;5.030;2022-08-21T13:11:06;101591.00;;;26.23;48.12
71907;BME280;59781;52.090;5.030;2022-08-21T13:13:49;101589.34;;;26.00;47.43
71907;BME280;59781;52.090;5.030;2022-08-21T13:17:39;101596.88;;;25.50;48.95
71907;BME280;59781;52.090;5.030;2022-08-21T13:20:36;101595.84;;;26.11;47.12
71907;BME280;59781;52.090;5.030;2022-08-21T13:24:34;101576.28;;;27.95;42.25
71907;BME280;59781;52.090;5.030;2022-08-21T13:27:30;101581.53;;;27.91;42.69
71907;BME280;59781;52.090;5.030;2022-08-21T13:30:31;101584.09;;;26.43;43.58
71907;BME280;59781;52.090;5.030;2022-08-21T13:33:01;101591.41;;;26.10;45.02
71907;BME280;59781;52.090;5.030;2022-08-21T13:36:39;101593.47;;;26.42;47.26
71907;BME280;59781;52.090;5.030;2022-08-21T13:39:50;101593.84;;;26.07;47.68
71907;BME280;59781;52.090;5.030;2022-08-21T13:42:17;101593.50;;;25.64;49.09
71907;BME280;59781;52.090;5.030;2022-08-21T13:45:00;101589.75;;;25.70;47.86
71907;BME280;59781;52.090;5.030;2022-08-21T13:51:39;101583.53;;;27.22;42.15
71907;BME280;59781;52.090;5.030;2022-08-21T13:54:24;101570.75;;;27.53;41.61
71907;BME280;59781;52.090;5.030;2022-08-21T13:57:28;101570.50;;;26.63;43.09
71907;BME280;59781;52.090;5.030;2022-08-21T14:00:27;101585.50;;;26.23;43.59
71907;BME280;59781;52.090;5.030;2022-08-21T14:03:11;101584.63;;;26.18;45.10
71907;BME280;59781;52.090;5.030;2022-08-21T14:10:21;101580.50;;;26.20;44.52
71907;BME280;59781;52.090;5.030;2022-08-21T14:12:52;101587.03;;;26.14;43.76
71907;BME280;59781;52.090;5.030;2022-08-21T14:15:26;101592.22;;;25.89;44.67
71907;BME280;59781;52.090;5.030;2022-08-21T14:17:55;101594.19;;;25.21;46.28
71907;BME280;59781;52.090;5.030;2022-08-21T14:21:12;101587.25;;;25.35;46.26
71907;BME280;59781;52.090;5.030;2022-08-21T14:29:48;101591.16;;;25.06;44.36
71907;BME280;59781;52.090;5.030;2022-08-21T14:33:30;101588.09;;;25.02;43.66
71907;BME280;59781;52.090;5.030;2022-08-21T14:36:40;101587.13;;;24.97;44.51
71907;BME280;59781;52.090;5.030;2022-08-21T14:39:44;101594.94;;;25.16;44.16
71907;BME280;59781;52.090;5.030;2022-08-21T14:42:49;101597.03;;;24.81;45.10
71907;BME280;59781;52.090;5.030;2022-08-21T14:46:45;101592.25;;;25.05;45.58
71907;BME280;59781;52.090;5.030;2022-08-21T14:50:49;101599.22;;;24.79;43.98
71907;BME280;59781;52.090;5.030;2022-08-21T14:54:01;101589.00;;;24.63;45.34
71907;BME280;59781;52.090;5.030;2022-08-21T14:57:11;101598.72;;;24.53;45.74
71907;BME280;59781;52.090;5.030;2022-08-21T15:01:34;101614.09;;;24.38;46.67
71907;BME280;59781;52.090;5.030;2022-08-21T15:08:32;101611.34;;;24.38;45.94
71907;BME280;59781;52.090;5.030;2022-08-21T15:11:45;101609.09;;;24.35;45.81
71907;BME280;59781;52.090;5.030;2022-08-21T15:14:32;101609.91;;;24.35;45.82
71907;BME280;59781;52.090;5.030;2022-08-21T15:18:44;101615.09;;;24.08;46.85
71907;BME280;59781;52.090;5.030;2022-08-21T15:22:22;101609.69;;;24.25;50.48
71907;BME280;59781;52.090;5.030;2022-08-21T15:26:17;101608.34;;;24.27;51.77
71907;BME280;59781;52.090;5.030;2022-08-21T15:30:13;101613.78;;;23.99;51.59
71907;BME280;59781;52.090;5.030;2022-08-21T15:33:52;101619.50;;;24.21;52.14
71907;BME280;59781;52.090;5.030;2022-08-21T15:36:28;101618.59;;;23.92;53.08
71907;BME280;59781;52.090;5.030;2022-08-21T15:39:17;101616.53;;;24.11;52.90
71907;BME280;59781;52.090;5.030;2022-08-21T15:43:55;101625.50;;;24.58;51.01
71907;BME280;59781;52.090;5.030;2022-08-21T15:51:17;101622.00;;;24.22;51.76
71907;BME280;59781;52.090;5.030;2022-08-21T15:54:35;101614.25;;;24.19;52.44
71907;BME280;59781;52.090;5.030;2022-08-21T15:58:38;101619.53;;;23.97;53.46
71907;BME280;59781;52.090;5.030;2022-08-21T16:01:11;101619.28;;;23.99;52.80
71907;BME280;59781;52.090;5.030;2022-08-21T16:04:49;101619.03;;;24.12;51.36
71907;BME280;59781;52.090;5.030;2022-08-21T16:08:43;101626.19;;;24.25;51.46
71907;BME280;59781;52.090;5.030;2022-08-21T16:11:45;101619.59;;;24.26;52.56
71907;BME280;59781;52.090;5.030;2022-08-21T16:15:42;101621.34;;;23.92;53.44
71907;BME280;59781;52.090;5.030;2022-08-21T16:19:54;101618.69;;;23.97;52.14
71907;BME280;59781;52.090;5.030;2022-08-21T16:22:21;101620.75;;;24.01;52.70
71907;BME280;59781;52.090;5.030;2022-08-21T16:24:47;101616.22;;;23.84;53.58
71907;BME280;59781;52.090;5.030;2022-08-21T16:27:39;101618.59;;;23.68;53.17
71907;BME280;59781;52.090;5.030;2022-08-21T16:31:29;101623.81;;;23.58;52.88
71907;BME280;59781;52.090;5.030;2022-08-21T16:33:56;101621.47;;;23.62;53.75
71907;BME280;59781;52.090;5.030;2022-08-21T16:36:24;101620.91;;;23.60;53.12
71907;BME280;59781;52.090;5.030;2022-08-21T16:38:51;101616.91;;;23.56;53.04
71907;BME280;59781;52.090;5.030;2022-08-21T16:45:13;101615.31;;;23.36;54.98
71907;BME280;59781;52.090;5.030;2022-08-21T16:48:53;101619.88;;;23.42;54.55
71907;BME280;59781;52.090;5.030;2022-08-21T16:51:18;101625.63;;;22.99;55.71
71907;BME280;59781;52.090;5.030;2022-08-21T16:53:44;101620.75;;;23.01;53.94
71907;BME280;59781;52.090;5.030;2022-08-21T16:56:35;101622.56;;;23.07;54.55
71907;BME280;59781;52.090;5.030;2022-08-21T16:59:21;101624.75;;;22.87;55.61
71907;BME280;59781;52.090;5.030;2022-08-21T17:01:47;101620.28;;;22.74;55.44
71907;BME280;59781;52.090;5.030;2022-08-21T17:04:44;101616.53;;;22.87;54.95
71907;BME280;59781;52.090;5.030;2022-08-21T17:08:38;101625.38;;;22.71;54.92
71907;BME280;59781;52.090;5.030;2022-08-21T17:12:03;101626.03;;;22.54;56.08
71907;BME280;59781;52.090;5.030;2022-08-21T17:15:53;101618.09;;;22.65;56.61
71907;BME280;59781;52.090;5.030;2022-08-21T17:18:22;101623.38;;;22.48;56.86
71907;BME280;59781;52.090;5.030;2022-08-21T17:20:49;101618.78;;;22.60;56.56
71907;BME280;59781;52.090;5.030;2022-08-21T17:27:22;101620.09;;;22.39;58.73
71907;BME280;59781;52.090;5.030;2022-08-21T17:31:38;101628.50;;;22.44;59.13
71907;BME280;59781;52.090;5.030;2022-08-21T17:34:15;101624.84;;;22.32;59.06
71907;BME280;59781;52.090;5.030;2022-08-21T17:37:40;101617.81;;;22.36;58.73
71907;BME280;59781;52.090;5.030;2022-08-21T17:40:30;101623.56;;;22.35;59.39
71907;BME280;59781;52.090;5.030;2022-08-21T17:44:21;101624.53;;;22.22;59.79
71907;BME280;59781;52.090;5.030;2022-08-21T17:47:55;101628.72;;;22.06;59.65